createdAt,value
2018-09-22T00:00:01.757Z,100456.37
2018-09-22T00:00:36.469Z,100453.38
2018-09-22T00:01:10.642Z,100460.20
2018-09-22T00:01:45.269Z,100460.59
2018-09-22T00:02:20.578Z,100461.71
2018-09-22T00:02:55.295Z,100449.59
2018-09-22T00:03:30.539Z,100460.05
2018-09-22T00:04:05.214Z,100458.63
2018-09-22T00:04:39.818Z,100465.17
2018-09-22T00:05:14.465Z,100466.92
2018-09-22T00:05:49.497Z,100466.47
2018-09-22T00:06:24.266Z,100467.53
2018-09-22T00:06:59.124Z,100469.80
2018-09-22T00:07:33.738Z,100462.73
2018-09-22T00:08:08.330Z,100467.98
2018-09-22T00:08:42.966Z,100464.33
2018-09-22T00:09:17.682Z,100463.55
2018-09-22T00:09:52.307Z,100462.64
2018-09-22T00:10:26.987Z,100464.39
2018-09-22T00:11:01.740Z,100462.64
2018-09-22T00:11:36.593Z,100455.81
2018-09-22T00:12:11.200Z,100457.91
2018-09-22T00:12:45.832Z,100468.17
2018-09-22T00:13:20.672Z,100461.10
2018-09-22T00:13:55.350Z,100469.58
2018-09-22T00:14:30.002Z,100462.73
2018-09-22T00:15:04.666Z,100466.73
2018-09-22T00:15:39.512Z,100471.48
2018-09-22T00:16:14.226Z,100465.89
2018-09-22T00:16:48.976Z,100462.64
2018-09-22T00:17:23.938Z,100465.44
2018-09-22T00:17:58.686Z,100472.27
2018-09-22T00:18:33.287Z,100472.33
2018-09-22T00:19:07.963Z,100468.94
2018-09-22T00:19:42.942Z,100471.20
2018-09-22T00:20:17.760Z,100471.41
2018-09-22T00:20:52.450Z,100474.12
2018-09-22T00:21:27.079Z,100473.55
2018-09-22T00:22:01.692Z,100474.91
2018-09-22T00:22:36.300Z,100474.91
2018-09-22T00:23:10.898Z,100475.11
2018-09-22T00:23:45.510Z,100483.20
2018-09-22T00:24:20.276Z,100480.50
2018-09-22T00:24:55.066Z,100478.80
2018-09-22T00:25:29.790Z,100479.98
2018-09-22T00:26:04.439Z,100485.23
2018-09-22T00:26:39.076Z,100483.09
2018-09-22T00:27:13.762Z,100483.42
2018-09-22T00:27:48.577Z,100478.80
2018-09-22T00:28:23.440Z,100478.41
2018-09-22T00:28:58.107Z,100479.59
2018-09-22T00:29:32.789Z,100478.10
2018-09-22T00:30:07.764Z,100475.17
2018-09-22T00:30:42.354Z,100482.45
2018-09-22T00:31:17.003Z,100480.16
2018-09-22T00:31:51.787Z,100476.03
2018-09-22T00:32:26.459Z,100473.34
2018-09-22T00:33:01.040Z,100476.94
2018-09-22T00:33:35.639Z,100477.84
2018-09-22T00:34:10.306Z,100479.61
2018-09-22T00:34:44.937Z,100477.77
2018-09-22T00:35:19.786Z,100475.95
2018-09-22T00:35:54.471Z,100471.48
2018-09-22T00:36:29.090Z,100473.17
2018-09-22T00:37:03.759Z,100478.16
2018-09-22T00:37:38.385Z,100472.52
2018-09-22T00:38:12.983Z,100479.12
2018-09-22T00:38:47.672Z,100480.42
2018-09-22T00:39:22.402Z,100481.81
2018-09-22T00:39:57.599Z,100487.64
2018-09-22T00:40:32.266Z,100479.97
2018-09-22T00:41:06.931Z,100486.85
2018-09-22T00:41:41.588Z,100483.98
2018-09-22T00:42:16.348Z,100488.88
2018-09-22T00:42:51.047Z,100487.75
2018-09-22T00:43:25.748Z,100478.94
2018-09-22T00:44:00.415Z,100486.61
2018-09-22T00:44:35.127Z,100475.62
2018-09-22T00:45:10.126Z,100482.95
2018-09-22T00:45:44.851Z,100473.41
2018-09-22T00:46:19.714Z,100475.38
2018-09-22T00:46:54.410Z,100480.74
2018-09-22T00:47:29.013Z,100480.69
2018-09-22T00:48:03.660Z,100473.80
2018-09-22T00:48:38.250Z,100476.16
2018-09-22T00:49:12.979Z,100482.56
2018-09-22T00:49:47.665Z,100488.02
2018-09-22T00:50:22.279Z,100487.56
2018-09-22T00:50:56.958Z,100482.44
2018-09-22T00:51:32.159Z,100481.98
2018-09-22T00:52:06.813Z,100485.03
2018-09-22T00:52:41.448Z,100485.17
2018-09-22T00:53:16.134Z,100489.38
2018-09-22T00:53:50.962Z,100487.63
2018-09-22T00:54:25.681Z,100485.03
2018-09-22T00:55:00.675Z,100485.12
2018-09-22T00:55:35.281Z,100493.87
2018-09-22T00:56:09.907Z,100485.42
2018-09-22T00:56:44.618Z,100478.69
2018-09-22T00:57:19.484Z,100487.77
2018-09-22T00:57:54.139Z,100487.38
2018-09-22T00:58:28.765Z,100491.67
2018-09-22T00:59:03.482Z,100496.80
2018-09-22T00:59:38.116Z,100490.50
2018-09-22T01:00:12.736Z,100493.88
2018-09-22T01:00:47.402Z,100497.78
2018-09-22T01:01:22.138Z,100500.28
2018-09-22T01:01:56.829Z,100501.58
2018-09-22T01:02:31.477Z,100499.38
2018-09-22T01:03:06.498Z,100504.78
2018-09-22T01:03:41.126Z,100502.69
2018-09-22T01:04:15.808Z,100504.33
2018-09-22T01:04:50.521Z,100501.51
2018-09-22T01:05:25.267Z,100502.26
2018-09-22T01:05:59.935Z,100501.80
2018-09-22T01:06:34.603Z,100503.86
2018-09-22T01:07:09.409Z,100494.13
2018-09-22T01:07:44.124Z,100500.73
2018-09-22T01:08:19.097Z,100503.95
2018-09-22T01:08:53.762Z,100498.13
2018-09-22T01:09:29.411Z,100503.41
2018-09-22T01:10:04.071Z,100501.19
2018-09-22T01:10:38.726Z,100500.83
2018-09-22T01:11:13.344Z,100507.17
2018-09-22T01:11:48.059Z,100504.27
2018-09-22T01:12:22.847Z,100511.22
2018-09-22T01:12:57.583Z,100509.07
2018-09-22T01:13:32.190Z,100516.71
2018-09-22T01:14:07.379Z,100516.71
2018-09-22T01:14:42.588Z,100517.89
2018-09-22T01:15:17.231Z,100510.67
2018-09-22T01:15:52.058Z,100508.66
2018-09-22T01:16:26.858Z,100504.63
2018-09-22T01:17:01.524Z,100509.97
2018-09-22T01:17:36.276Z,100499.19
2018-09-22T01:18:11.277Z,100514.66
2018-09-22T01:18:45.964Z,100512.63
2018-09-22T01:19:21.102Z,100508.94
2018-09-22T01:19:55.749Z,100508.84
2018-09-22T01:20:30.365Z,100510.03
2018-09-22T01:21:04.994Z,100507.04
2018-09-22T01:21:39.645Z,100512.57
2018-09-22T01:22:14.273Z,100514.72
2018-09-22T01:22:49.510Z,100509.64
2018-09-22T01:23:24.365Z,100513.67
2018-09-22T01:23:59.050Z,100516.78
2018-09-22T01:24:33.701Z,100516.05
2018-09-22T01:25:08.925Z,100516.05
2018-09-22T01:25:43.544Z,100519.18
2018-09-22T01:26:18.306Z,100529.63
2018-09-22T01:26:53.120Z,100529.08
2018-09-22T01:27:28.143Z,100519.43
2018-09-22T01:28:02.878Z,100532.02
2018-09-22T01:28:37.493Z,100530.02
2018-09-22T01:29:15.023Z,100539.86
2018-09-22T01:29:49.796Z,100536.56
2018-09-22T01:30:24.634Z,100544.75
2018-09-22T01:30:59.284Z,100538.95
2018-09-22T01:31:33.919Z,100542.00
2018-09-22T01:32:08.584Z,100546.50
2018-09-22T01:32:43.204Z,100547.20
2018-09-22T01:33:18.127Z,100545.05
2018-09-22T01:33:52.896Z,100546.44
2018-09-22T01:34:27.630Z,100556.23
2018-09-22T01:35:02.341Z,100547.14
2018-09-22T01:35:37.319Z,100557.86
2018-09-22T01:36:12.321Z,100555.66
2018-09-22T01:36:46.942Z,100559.11
2018-09-22T01:37:21.841Z,100542.69
2018-09-22T01:37:56.597Z,100543.58
2018-09-22T01:38:31.190Z,100540.62
2018-09-22T01:39:07.894Z,100533.34
2018-09-22T01:39:42.546Z,100542.54
2018-09-22T01:40:17.277Z,100543.39
2018-09-22T01:40:52.423Z,100539.16
2018-09-22T01:41:27.277Z,100546.49
2018-09-22T01:42:01.896Z,100543.70
2018-09-22T01:42:36.514Z,100545.78
2018-09-22T01:43:11.470Z,100541.84
2018-09-22T01:43:45.629Z,100539.44
2018-09-22T01:44:20.454Z,100543.14
2018-09-22T01:44:55.242Z,100536.42
2018-09-22T01:45:29.961Z,100535.41
2018-09-22T01:46:04.583Z,100540.70
2018-09-22T01:46:39.221Z,100535.06
2018-09-22T01:47:13.840Z,100543.75
2018-09-22T01:47:48.577Z,100539.41
2018-09-22T01:48:23.443Z,100544.69
2018-09-22T01:48:58.072Z,100537.95
2018-09-22T01:49:32.738Z,100542.80
2018-09-22T01:50:07.379Z,100549.03
2018-09-22T01:50:41.992Z,100534.84
2018-09-22T01:51:16.609Z,100551.63
2018-09-22T01:51:51.322Z,100540.56
2018-09-22T01:52:26.025Z,100544.75
2018-09-22T01:53:00.839Z,100542.45
2018-09-22T01:53:35.471Z,100548.86
2018-09-22T01:54:10.168Z,100549.00
2018-09-22T01:54:44.812Z,100544.27
2018-09-22T01:55:19.776Z,100547.36
2018-09-22T01:55:54.563Z,100546.91
2018-09-22T01:56:29.276Z,100541.27
2018-09-22T01:57:03.881Z,100548.61
2018-09-22T01:57:38.471Z,100547.25
2018-09-22T01:58:13.153Z,100551.84
2018-09-22T01:58:47.999Z,100544.82
2018-09-22T01:59:23.222Z,100553.06
2018-09-22T01:59:57.932Z,100553.15
2018-09-22T02:00:32.670Z,100551.59
2018-09-22T02:01:08.034Z,100549.40
2018-09-22T02:01:42.877Z,100546.13
2018-09-22T02:02:17.506Z,100539.09
2018-09-22T02:02:52.255Z,100546.77
2018-09-22T02:03:26.982Z,100546.42
2018-09-22T02:04:01.823Z,100552.06
2018-09-22T02:04:36.453Z,100555.25
2018-09-22T02:05:11.138Z,100551.16
2018-09-22T02:05:45.954Z,100551.22
2018-09-22T02:06:20.921Z,100547.86
2018-09-22T02:06:55.648Z,100548.52
2018-09-22T02:07:30.280Z,100552.20
2018-09-22T02:08:04.966Z,100561.28
2018-09-22T02:08:39.587Z,100558.74
2018-09-22T02:09:14.607Z,100559.75
2018-09-22T02:09:49.523Z,100554.65
2018-09-22T02:10:24.377Z,100560.39
2018-09-22T02:10:59.289Z,100559.39
2018-09-22T02:11:33.913Z,100562.03
2018-09-22T02:12:08.534Z,100561.84
2018-09-22T02:12:43.256Z,100564.68
2018-09-22T02:13:18.126Z,100564.68
2018-09-22T02:13:53.240Z,100571.17
2018-09-22T02:14:28.045Z,100575.80
2018-09-22T02:15:02.654Z,100578.31
2018-09-22T02:15:37.572Z,100580.40
2018-09-22T02:16:12.200Z,100579.69
2018-09-22T02:16:46.595Z,100577.84
2018-09-22T02:17:21.431Z,100578.05
2018-09-22T02:17:56.178Z,100570.20
2018-09-22T02:18:30.836Z,100569.40
2018-09-22T02:19:05.683Z,100566.67
2018-09-22T02:19:40.320Z,100565.01
2018-09-22T02:20:14.930Z,100565.03
2018-09-22T02:20:49.689Z,100568.47
2018-09-22T02:21:24.440Z,100562.20
2018-09-22T02:21:59.071Z,100561.94
2018-09-22T02:22:33.710Z,100570.82
2018-09-22T02:23:08.578Z,100567.81
2018-09-22T02:23:43.190Z,100569.56
2018-09-22T02:24:17.911Z,100582.19
2018-09-22T02:24:52.853Z,100582.53
2018-09-22T02:25:27.610Z,100576.73
2018-09-22T02:26:02.339Z,100574.30
2018-09-22T02:26:37.011Z,100581.22
2018-09-22T02:27:11.637Z,100578.63
2018-09-22T02:27:46.281Z,100573.39
2018-09-22T02:28:21.605Z,100575.03
2018-09-22T02:28:56.441Z,100573.69
2018-09-22T02:29:31.106Z,100573.10
2018-09-22T02:30:06.147Z,100576.05
2018-09-22T02:30:40.743Z,100575.94
2018-09-22T02:31:14.942Z,100572.89
2018-09-22T02:31:49.892Z,100567.36
2018-09-22T02:32:24.882Z,100576.33
2018-09-22T02:32:59.633Z,100577.23
2018-09-22T02:33:34.354Z,100569.00
2018-09-22T02:34:09.019Z,100574.48
2018-09-22T02:34:43.670Z,100580.72
2018-09-22T02:35:18.799Z,100575.44
2018-09-22T02:35:53.514Z,100573.53
2018-09-22T02:36:28.235Z,100580.11
2018-09-22T02:37:02.881Z,100568.49
2018-09-22T02:37:37.649Z,100570.82
2018-09-22T02:38:12.299Z,100572.23
2018-09-22T02:38:46.923Z,100569.29
2018-09-22T02:39:21.919Z,100578.03
2018-09-22T02:39:56.682Z,100577.23
2018-09-22T02:40:31.368Z,100575.44
2018-09-22T02:41:06.341Z,100579.92
2018-09-22T02:41:40.984Z,100568.20
2018-09-22T02:42:15.644Z,100567.70
2018-09-22T02:42:50.582Z,100573.55
2018-09-22T02:43:25.537Z,100570.41
2018-09-22T02:44:00.394Z,100569.29
2018-09-22T02:44:35.418Z,100568.94
2018-09-22T02:45:10.055Z,100573.63
2018-09-22T02:45:44.668Z,100566.35
2018-09-22T02:46:19.389Z,100570.19
2018-09-22T02:46:54.483Z,100576.33
2018-09-22T02:47:29.223Z,100570.64
2018-09-22T02:48:03.891Z,100575.33
2018-09-22T02:48:38.490Z,100576.33
2018-09-22T02:49:13.214Z,100581.62
2018-09-22T02:49:47.846Z,100572.84
2018-09-22T02:50:22.652Z,100578.23
2018-09-22T02:50:57.546Z,100572.68
2018-09-22T02:51:32.325Z,100567.09
2018-09-22T02:52:07.398Z,100562.02
2018-09-22T02:52:42.257Z,100564.95
2018-09-22T02:53:16.998Z,100564.90
2018-09-22T02:53:54.579Z,100555.03
2018-09-22T02:54:29.490Z,100561.30
2018-09-22T02:55:04.508Z,100579.81
2018-09-22T02:55:39.176Z,100575.72
2018-09-22T02:56:13.859Z,100576.94
2018-09-22T02:56:48.964Z,100574.23
2018-09-22T02:57:23.719Z,100579.03
2018-09-22T02:57:57.946Z,100577.78
2018-09-22T02:58:32.958Z,100584.50
2018-09-22T02:59:07.614Z,100576.06
2018-09-22T02:59:42.325Z,100579.61
2018-09-22T03:00:17.012Z,100572.78
2018-09-22T03:00:52.600Z,100578.77
2018-09-22T03:01:27.297Z,100571.55
2018-09-22T03:02:02.354Z,100577.42
2018-09-22T03:02:36.993Z,100565.85
2018-09-22T03:03:11.607Z,100571.94
2018-09-22T03:03:46.492Z,100571.98
2018-09-22T03:04:21.624Z,100571.14
2018-09-22T03:04:56.406Z,100565.75
2018-09-22T03:05:31.090Z,100568.50
2018-09-22T03:06:06.168Z,100572.55
2018-09-22T03:06:40.848Z,100568.95
2018-09-22T03:07:15.194Z,100569.71
2018-09-22T03:07:49.877Z,100576.83
2018-09-22T03:08:24.709Z,100575.64
2018-09-22T03:08:59.380Z,100576.77
2018-09-22T03:09:34.051Z,100580.83
2018-09-22T03:10:08.722Z,100584.16
2018-09-22T03:10:43.397Z,100584.27
2018-09-22T03:11:18.610Z,100590.94
2018-09-22T03:11:53.570Z,100589.98
2018-09-22T03:12:28.504Z,100586.30
2018-09-22T03:13:03.163Z,100590.44
2018-09-22T03:13:37.813Z,100598.61
2018-09-22T03:14:12.550Z,100595.27
2018-09-22T03:14:47.240Z,100594.19
2018-09-22T03:15:22.651Z,100596.39
2018-09-22T03:15:57.534Z,100599.45
2018-09-22T03:16:32.228Z,100603.27
2018-09-22T03:17:06.863Z,100602.22
2018-09-22T03:17:41.480Z,100597.48
2018-09-22T03:18:16.139Z,100600.52
2018-09-22T03:18:51.317Z,100593.69
2018-09-22T03:19:26.236Z,100596.33
2018-09-22T03:20:00.993Z,100592.80
2018-09-22T03:20:35.664Z,100587.95
2018-09-22T03:21:10.274Z,100594.54
2018-09-22T03:21:44.956Z,100600.75
2018-09-22T03:22:20.217Z,100602.25
2018-09-22T03:22:55.024Z,100598.45
2018-09-22T03:23:29.676Z,100593.08
2018-09-22T03:24:04.521Z,100592.23
2018-09-22T03:24:39.174Z,100588.52
2018-09-22T03:25:13.839Z,100583.44
2018-09-22T03:25:49.252Z,100580.80
2018-09-22T03:26:24.141Z,100584.72
2018-09-22T03:26:59.128Z,100581.22
2018-09-22T03:27:33.925Z,100586.64
2018-09-22T03:28:09.033Z,100575.27
2018-09-22T03:28:43.660Z,100581.12
2018-09-22T03:29:18.968Z,100591.43
2018-09-22T03:29:54.023Z,100583.84
2018-09-22T03:30:28.947Z,100580.30
2018-09-22T03:31:03.598Z,100582.92
2018-09-22T03:31:38.257Z,100585.75
2018-09-22T03:32:12.875Z,100582.80
2018-09-22T03:32:47.811Z,100582.25
2018-09-22T03:33:23.031Z,100580.45
2018-09-22T03:33:57.751Z,100575.83
2018-09-22T03:34:32.562Z,100581.86
2018-09-22T03:35:07.609Z,100577.75
2018-09-22T03:35:42.221Z,100587.39
2018-09-22T03:36:17.120Z,100579.53
2018-09-22T03:36:52.124Z,100579.16
2018-09-22T03:37:26.872Z,100582.41
2018-09-22T03:38:01.559Z,100578.47
2018-09-22T03:38:36.182Z,100572.55
2018-09-22T03:39:11.961Z,100573.68
2018-09-22T03:39:46.618Z,100573.58
2018-09-22T03:40:21.862Z,100579.21
2018-09-22T03:40:56.705Z,100574.97
2018-09-22T03:41:31.574Z,100574.62
2018-09-22T03:42:06.593Z,100575.56
2018-09-22T03:42:41.199Z,100577.80
2018-09-22T03:43:15.835Z,100572.17
2018-09-22T03:43:50.964Z,100579.15
2018-09-22T03:44:25.895Z,100575.20
2018-09-22T03:45:00.574Z,100572.62
2018-09-22T03:45:35.204Z,100579.59
2018-09-22T03:46:10.011Z,100579.05
2018-09-22T03:46:44.630Z,100584.83
2018-09-22T03:47:19.535Z,100591.00
2018-09-22T03:47:54.464Z,100584.73
2018-09-22T03:48:29.192Z,100590.42
2018-09-22T03:49:03.817Z,100587.42
2018-09-22T03:49:38.431Z,100584.52
2018-09-22T03:50:13.095Z,100582.89
2018-09-22T03:50:48.124Z,100583.39
2018-09-22T03:51:23.064Z,100582.31
2018-09-22T03:51:57.826Z,100589.42
2018-09-22T03:52:32.568Z,100588.80
2018-09-22T03:53:07.220Z,100583.32
2018-09-22T03:53:41.883Z,100589.35
2018-09-22T03:54:16.532Z,100592.11
2018-09-22T03:54:51.540Z,100588.57
2018-09-22T03:55:26.327Z,100589.47
2018-09-22T03:56:01.141Z,100586.83
2018-09-22T03:56:35.704Z,100590.81
2018-09-22T03:57:10.302Z,100590.37
2018-09-22T03:57:44.929Z,100590.37
2018-09-22T03:58:19.733Z,100582.54
2018-09-22T03:58:54.803Z,100587.23
2018-09-22T03:59:29.591Z,100580.23
2018-09-22T04:00:04.407Z,100577.63
2018-09-22T04:00:38.990Z,100574.59
2018-09-22T04:01:13.593Z,100575.76
2018-09-22T04:01:48.756Z,100570.52
2018-09-22T04:02:23.980Z,100577.19
2018-09-22T04:02:58.694Z,100566.59
2018-09-22T04:03:33.324Z,100562.20
2018-09-22T04:04:07.973Z,100564.39
2018-09-22T04:04:42.650Z,100566.81
2018-09-22T04:05:17.409Z,100568.22
2018-09-22T04:05:52.215Z,100563.70
2018-09-22T04:06:27.041Z,100570.69
2018-09-22T04:07:01.708Z,100567.37
2018-09-22T04:07:36.458Z,100567.50
2018-09-22T04:08:11.083Z,100573.58
2018-09-22T04:08:45.713Z,100579.87
2018-09-22T04:09:20.848Z,100578.63
2018-09-22T04:09:55.646Z,100576.17
2018-09-22T04:10:30.328Z,100583.05
2018-09-22T04:11:04.966Z,100584.47
2018-09-22T04:11:39.591Z,100581.47
2018-09-22T04:12:14.215Z,100588.23
2018-09-22T04:12:49.076Z,100588.45
2018-09-22T04:13:24.014Z,100592.57
2018-09-22T04:13:58.789Z,100593.12
2018-09-22T04:14:33.478Z,100596.02
2018-09-22T04:15:08.807Z,100594.20
2018-09-22T04:15:43.651Z,100599.17
2018-09-22T04:16:18.816Z,100601.06
2018-09-22T04:16:53.549Z,100594.19
2018-09-22T04:17:28.379Z,100595.61
2018-09-22T04:18:03.001Z,100594.86
2018-09-22T04:18:37.645Z,100593.47
2018-09-22T04:19:12.262Z,100592.67
2018-09-22T04:19:46.909Z,100595.70
2018-09-22T04:20:22.204Z,100596.61
2018-09-22T04:20:57.074Z,100595.36
2018-09-22T04:21:31.870Z,100589.28
2018-09-22T04:22:06.482Z,100590.75
2018-09-22T04:22:41.096Z,100594.19
2018-09-22T04:23:15.775Z,100592.55
2018-09-22T04:23:50.824Z,100589.55
2018-09-22T04:24:25.729Z,100589.68
2018-09-22T04:25:00.531Z,100597.01
2018-09-22T04:25:35.142Z,100595.53
2018-09-22T04:26:09.769Z,100596.11
2018-09-22T04:26:43.902Z,100598.12
2018-09-22T04:27:18.084Z,100601.66
2018-09-22T04:27:52.325Z,100603.53
2018-09-22T04:28:27.103Z,100596.83
2018-09-22T04:29:01.965Z,100598.45
2018-09-22T04:29:36.571Z,100605.77
2018-09-22T04:30:11.227Z,100598.45
2018-09-22T04:30:45.923Z,100599.94
2018-09-22T04:31:20.710Z,100607.88
2018-09-22T04:31:55.626Z,100600.19
2018-09-22T04:32:30.768Z,100602.64
2018-09-22T04:33:05.609Z,100600.81
2018-09-22T04:33:40.210Z,100597.16
2018-09-22T04:34:15.218Z,100598.80
2018-09-22T04:34:50.277Z,100599.34
2018-09-22T04:35:25.224Z,100602.38
2018-09-22T04:36:00.091Z,100597.95
2018-09-22T04:36:34.724Z,100600.19
2018-09-22T04:37:09.342Z,100599.47
2018-09-22T04:37:43.994Z,100607.12
2018-09-22T04:38:18.983Z,100599.04
2018-09-22T04:38:53.768Z,100603.42
2018-09-22T04:39:28.455Z,100608.98
2018-09-22T04:40:03.261Z,100604.08
2018-09-22T04:40:37.891Z,100605.38
2018-09-22T04:41:12.586Z,100601.77
2018-09-22T04:41:47.914Z,100613.60
2018-09-22T04:42:23.097Z,100606.67
2018-09-22T04:42:57.847Z,100610.33
2018-09-22T04:43:32.537Z,100612.52
2018-09-22T04:44:07.736Z,100616.81
2018-09-22T04:44:42.358Z,100610.06
2018-09-22T04:45:17.027Z,100618.06
2018-09-22T04:45:51.965Z,100619.48
2018-09-22T04:46:26.945Z,100614.76
2018-09-22T04:47:01.995Z,100613.06
2018-09-22T04:47:36.611Z,100613.86
2018-09-22T04:48:11.218Z,100609.72
2018-09-22T04:48:45.821Z,100614.41
2018-09-22T04:49:21.515Z,100609.45
2018-09-22T04:49:56.367Z,100617.39
2018-09-22T04:50:37.582Z,100611.45
2018-09-22T04:51:12.202Z,100614.09
2018-09-22T04:51:46.880Z,100617.20
2018-09-22T04:52:21.984Z,100617.98
2018-09-22T04:52:56.821Z,100623.33
2018-09-22T04:53:31.684Z,100617.39
2018-09-22T04:54:06.317Z,100623.42
2018-09-22T04:54:41.270Z,100621.38
2018-09-22T04:55:15.919Z,100622.97
2018-09-22T04:55:50.799Z,100622.08
2018-09-22T04:56:25.873Z,100621.68
2018-09-22T04:57:00.485Z,100624.22
2018-09-22T04:57:35.114Z,100620.17
2018-09-22T04:58:09.750Z,100630.66
2018-09-22T04:58:44.374Z,100621.86
2018-09-22T04:59:19.195Z,100622.84
2018-09-22T04:59:54.151Z,100626.55
2018-09-22T05:00:29.064Z,100624.63
2018-09-22T05:01:04.144Z,100627.62
2018-09-22T05:01:38.743Z,100625.83
2018-09-22T05:02:13.477Z,100625.88
2018-09-22T05:02:48.355Z,100630.75
2018-09-22T05:03:23.466Z,100636.19
2018-09-22T05:03:58.157Z,100624.48
2018-09-22T05:04:32.861Z,100625.56
2018-09-22T05:05:07.576Z,100632.98
2018-09-22T05:05:42.172Z,100631.14
2018-09-22T05:06:16.926Z,100636.05
2018-09-22T05:06:52.439Z,100646.24
2018-09-22T05:07:27.440Z,100648.16
2018-09-22T05:08:02.167Z,100652.19
2018-09-22T05:08:37.006Z,100642.78
2018-09-22T05:09:12.820Z,100647.85
2018-09-22T05:09:47.720Z,100637.58
2018-09-22T05:10:22.655Z,100639.77
2018-09-22T05:10:57.762Z,100637.41
2018-09-22T05:11:32.394Z,100641.16
2018-09-22T05:12:07.447Z,100646.50
2018-09-22T05:12:42.076Z,100654.77
2018-09-22T05:13:16.724Z,100648.64
2018-09-22T05:13:51.690Z,100654.63
2018-09-22T05:14:26.533Z,100651.28
2018-09-22T05:15:01.277Z,100649.41
2018-09-22T05:15:35.930Z,100658.47
2018-09-22T05:16:10.907Z,100662.94
2018-09-22T05:16:45.647Z,100660.83
2018-09-22T05:17:20.391Z,100659.36
2018-09-22T05:17:55.606Z,100656.95
2018-09-22T05:18:30.491Z,100660.75
2018-09-22T05:19:05.846Z,100665.23
2018-09-22T05:19:40.553Z,100670.26
2018-09-22T05:20:15.178Z,100673.70
2018-09-22T05:20:50.120Z,100677.98
2018-09-22T05:21:24.829Z,100671.95
2018-09-22T05:22:00.035Z,100666.67
2018-09-22T05:22:34.638Z,100671.11
2018-09-22T05:23:09.414Z,100667.87
2018-09-22T05:23:44.067Z,100660.31
2018-09-22T05:24:19.026Z,100663.39
2018-09-22T05:24:53.866Z,100655.53
2018-09-22T05:25:28.974Z,100660.11
2018-09-22T05:26:04.023Z,100663.83
2018-09-22T05:26:38.680Z,100671.40
2018-09-22T05:27:13.553Z,100670.83
2018-09-22T05:27:48.496Z,100671.45
2018-09-22T05:28:23.724Z,100669.78
2018-09-22T05:28:58.500Z,100674.48
2018-09-22T05:29:33.235Z,100672.41
2018-09-22T05:30:08.731Z,100678.36
2018-09-22T05:30:43.340Z,100679.81
2018-09-22T05:31:18.141Z,100669.91
2018-09-22T05:31:53.407Z,100670.72
2018-09-22T05:32:28.377Z,100671.16
2018-09-22T05:33:03.069Z,100661.45
2018-09-22T05:33:37.686Z,100666.31
2018-09-22T05:34:12.449Z,100671.31
2018-09-22T05:34:47.111Z,100673.19
2018-09-22T05:35:21.946Z,100674.39
2018-09-22T05:35:56.901Z,100672.61
2018-09-22T05:36:31.666Z,100681.23
2018-09-22T05:37:07.071Z,100684.55
2018-09-22T05:37:41.807Z,100682.97
2018-09-22T05:38:15.915Z,100690.70
2018-09-22T05:38:50.737Z,100681.23
2018-09-22T05:39:25.503Z,100692.88
2018-09-22T05:40:00.155Z,100687.98
2018-09-22T05:40:34.804Z,100687.14
2018-09-22T05:41:09.443Z,100689.69
2018-09-22T05:41:44.126Z,100685.96
2018-09-22T05:42:19.259Z,100696.56
2018-09-22T05:42:54.030Z,100689.44
2018-09-22T05:43:28.894Z,100688.55
2018-09-22T05:44:03.748Z,100689.84
2018-09-22T05:44:38.529Z,100694.71
2018-09-22T05:45:13.194Z,100694.13
2018-09-22T05:45:47.877Z,100690.98
2018-09-22T05:46:22.591Z,100686.40
2018-09-22T05:46:57.407Z,100689.75
2018-09-22T05:47:32.019Z,100689.55
2018-09-22T05:48:06.832Z,100691.42
2018-09-22T05:48:41.472Z,100693.36
2018-09-22T05:49:16.176Z,100691.02
2018-09-22T05:49:50.919Z,100691.91
2018-09-22T05:50:25.655Z,100697.75
2018-09-22T05:51:00.522Z,100698.71
2018-09-22T05:51:35.143Z,100696.45
2018-09-22T05:52:09.856Z,100705.11
2018-09-22T05:52:44.682Z,100699.20
2018-09-22T05:53:19.394Z,100700.05
2018-09-22T05:53:54.259Z,100702.68
2018-09-22T05:54:29.134Z,100701.75
2018-09-22T05:55:03.942Z,100702.84
2018-09-22T05:55:39.202Z,100701.30
2018-09-22T05:56:13.854Z,100692.63
2018-09-22T05:56:48.588Z,100700.05
2018-09-22T05:57:23.406Z,100700.94
2018-09-22T05:57:58.102Z,100698.26
2018-09-22T05:58:32.738Z,100700.49
2018-09-22T05:59:07.382Z,100704.08
2018-09-22T05:59:41.527Z,100714.05
2018-09-22T06:00:16.220Z,100710.71
2018-09-22T06:00:51.186Z,100714.44
2018-09-22T06:01:25.853Z,100711.84
2018-09-22T06:02:00.487Z,100709.30
2018-09-22T06:02:35.118Z,100717.23
2018-09-22T06:03:10.788Z,100713.39
2018-09-22T06:03:45.622Z,100726.62
2018-09-22T06:04:20.596Z,100726.87
2018-09-22T06:04:55.298Z,100721.12
2018-09-22T06:05:30.019Z,100714.64
2018-09-22T06:06:05.237Z,100724.60
2018-09-22T06:06:39.858Z,100717.92
2018-09-22T06:07:14.528Z,100722.50
2018-09-22T06:07:49.488Z,100718.25
2018-09-22T06:08:24.343Z,100719.09
2018-09-22T06:08:59.011Z,100724.47
2018-09-22T06:09:33.758Z,100716.70
2018-09-22T06:10:08.864Z,100720.52
2018-09-22T06:10:44.241Z,100720.18
2018-09-22T06:11:19.060Z,100719.73
2018-09-22T06:11:54.695Z,100713.98
2018-09-22T06:12:29.518Z,100716.31
2018-09-22T06:13:04.378Z,100718.99
2018-09-22T06:13:39.981Z,100719.27
2018-09-22T06:14:15.072Z,100721.14
2018-09-22T06:14:49.853Z,100719.22
2018-09-22T06:15:24.781Z,100720.51
2018-09-22T06:15:59.581Z,100719.17
2018-09-22T06:16:34.214Z,100716.92
2018-09-22T06:17:08.823Z,100713.48
2018-09-22T06:17:43.252Z,100714.03
2018-09-22T06:18:18.651Z,100713.06
2018-09-22T06:18:53.269Z,100713.55
2018-09-22T06:19:28.335Z,100720.12
2018-09-22T06:20:03.063Z,100721.42
2018-09-22T06:20:37.925Z,100716.20
2018-09-22T06:21:12.586Z,100718.95
2018-09-22T06:21:47.585Z,100726.63
2018-09-22T06:22:22.432Z,100724.80
2018-09-22T06:22:57.801Z,100733.77
2018-09-22T06:23:33.129Z,100728.06
2018-09-22T06:24:07.946Z,100728.37
2018-09-22T06:24:42.577Z,100728.16
2018-09-22T06:25:18.050Z,100726.40
2018-09-22T06:25:53.940Z,100732.92
2018-09-22T06:26:28.734Z,100730.28
2018-09-22T06:27:03.744Z,100730.66
2018-09-22T06:27:38.749Z,100734.77
2018-09-22T06:28:13.527Z,100737.89
2018-09-22T06:28:49.012Z,100735.80
2018-09-22T06:29:24.156Z,100740.94
2018-09-22T06:29:59.030Z,100740.39
2018-09-22T06:30:34.661Z,100738.34
2018-09-22T06:31:09.727Z,100747.25
2018-09-22T06:31:44.440Z,100746.41
2018-09-22T06:32:19.544Z,100741.67
2018-09-22T06:32:54.369Z,100743.81
2018-09-22T06:33:29.128Z,100736.70
2018-09-22T06:34:04.370Z,100728.98
2018-09-22T06:34:39.028Z,100734.39
2018-09-22T06:35:13.847Z,100733.19
2018-09-22T06:35:49.232Z,100739.36
2018-09-22T06:36:24.595Z,100731.27
2018-09-22T06:36:59.343Z,100736.23